Time;durP1;ratioP1;P1;durP2;ratioP2;P2;SDS_P1;SDS_P2;PMS_P1;PMS_P2;Temp;Humidity;BMP_temperature;BMP_pressure;BME280_temperature;BME280_humidity;BME280_pressure;Samples;Min_cycle;Max_cycle;Signal;HPM_P1;HPM_P2
2023/12/20 00:02:05;;;;;;;6.25;4.30;;;;;;;-1.86;100.00;97559.41;1223268;75;2919765;-69
2023/12/20 00:04:38;;;;;;;9.15;5.45;;;;;;;-2.02;100.00;97572.53;1222752;75;2913583;-69
2023/12/20 00:07:10;;;;;;;9.75;6.25;;;;;;;-2.08;100.00;97564.16;1223185;75;2918023;-67
2023/12/20 00:09:43;;;;;;;15.05;8.45;;;;;;;-1.97;100.00;97554.13;1223340;75;2927001;-71
2023/12/20 00:12:19;;;;;;;12.45;7.00;;;;;;;-1.98;100.00;97547.22;1222834;75;2914454;-70
2023/12/20 00:14:52;;;;;;;11.85;7.50;;;;;;;-1.91;100.00;97541.06;1222692;75;2919549;-69
2023/12/20 00:17:24;;;;;;;11.10;7.00;;;;;;;-1.98;100.00;97543.78;1222554;75;2916548;-70
2023/12/20 00:19:57;;;;;;;9.70;6.05;;;;;;;-1.97;100.00;97539.97;1223152;75;2920025;-70
2023/12/20 00:22:30;;;;;;;12.85;6.65;;;;;;;-2.04;100.00;97532.72;1222103;75;2921148;-69
2023/12/20 00:25:03;;;;;;;10.65;6.90;;;;;;;-2.06;100.00;97529.66;1221659;75;2920032;-67
2023/12/20 00:27:38;;;;;;;8.10;5.80;;;;;;;-2.04;100.00;97526.59;1223371;75;2921766;-70
2023/12/20 00:30:14;;;;;;;8.50;5.60;;;;;;;-2.02;100.00;97522.38;1222284;75;2923000;-68
2023/12/20 00:32:47;;;;;;;11.45;6.80;;;;;;;-2.05;100.00;97517.00;1223067;75;2920961;-69
2023/12/20 00:35:20;;;;;;;9.85;5.95;;;;;;;-1.96;100.00;97506.59;1222666;75;2922637;-71
2023/12/20 00:37:53;;;;;;;11.10;6.95;;;;;;;-1.99;100.00;97515.44;1222454;75;2918302;-67
2023/12/20 00:40:27;;;;;;;12.25;7.05;;;;;;;-2.05;100.00;97515.09;1222935;75;2919752;-69
2023/12/20 00:43:03;;;;;;;10.75;6.15;;;;;;;-2.01;100.00;97518.53;1222348;75;2924156;-69
2023/12/20 00:45:35;;;;;;;10.70;6.35;;;;;;;-2.08;100.00;97507.09;1223076;75;2925514;-71
2023/12/20 00:48:09;;;;;;;10.15;5.40;;;;;;;-2.15;100.00;97514.00;1223361;75;2925057;-66
2023/12/20 00:50:42;;;;;;;9.30;6.10;;;;;;;-2.19;100.00;97491.06;1221932;75;2936070;-70
2023/12/20 00:53:15;;;;;;;7.25;4.85;;;;;;;-2.05;100.00;97495.56;1222045;75;2927167;-71
2023/12/20 00:55:48;;;;;;;7.80;4.95;;;;;;;-2.07;100.00;97489.81;1223448;75;2890100;-68
2023/12/20 00:58:24;;;;;;;7.70;4.85;;;;;;;-2.27;100.00;97489.59;1223917;68;2916267;-65
2023/12/20 01:00:58;;;;;;;6.65;4.40;;;;;;;-2.22;100.00;97481.13;1224158;75;2920076;-70
2023/12/20 01:03:30;;;;;;;9.60;5.00;;;;;;;-2.17;100.00;97478.03;1222135;75;2919200;-69
2023/12/20 01:06:04;;;;;;;7.00;4.90;;;;;;;-2.26;100.00;97475.03;1222649;75;2954208;-67
2023/12/20 01:08:37;;;;;;;7.00;5.10;;;;;;;-2.43;100.00;97479.34;1223303;75;2927466;-72
2023/12/20 01:11:10;;;;;;;9.80;5.90;;;;;;;-2.42;100.00;97486.25;1223046;75;2917179;-71
2023/12/20 01:13:45;;;;;;;9.00;5.65;;;;;;;-2.41;100.00;97485.84;1222026;75;2918510;-68
2023/12/20 01:16:18;;;;;;;8.95;5.70;;;;;;;-2.41;100.00;97485.09;1222556;75;2918576;-69
2023/12/20 01:18:51;;;;;;;9.05;5.80;;;;;;;-2.44;100.00;97475.16;1223295;75;2922644;-71
2023/12/20 01:21:24;;;;;;;9.70;6.05;;;;;;;-2.57;100.00;97482.91;1223679;75;2919045;-68
2023/12/20 01:23:57;;;;;;;8.00;5.45;;;;;;;-2.52;100.00;97476.38;1222841;75;2923986;-68
2023/12/20 01:26:30;;;;;;;8.60;5.20;;;;;;;-2.58;100.00;97484.81;1223082;75;2927089;-69
2023/12/20 01:29:05;;;;;;;9.05;5.30;;;;;;;-2.55;100.00;97479.81;1222289;75;2920554;-70
2023/12/20 01:31:38;;;;;;;8.25;5.25;;;;;;;-2.65;100.00;97482.16;1223656;75;2931119;-69
2023/12/20 01:34:11;;;;;;;7.65;5.35;;;;;;;-2.54;100.00;97474.06;1224175;75;2908833;-68
2023/12/20 01:36:44;;;;;;;8.70;4.85;;;;;;;-2.51;100.00;97467.91;1221964;75;2920360;-69
2023/12/20 01:39:17;;;;;;;7.45;4.95;;;;;;;-2.50;100.00;97479.41;1223155;75;2933445;-69
2023/12/20 01:41:50;;;;;;;6.70;4.25;;;;;;;-2.50;100.00;97474.03;1222565;83;2926738;-67
2023/12/20 01:44:25;;;;;;;5.95;4.20;;;;;;;-2.51;100.00;97464.47;1222065;83;2925805;-66
2023/12/20 01:46:59;;;;;;;5.85;3.80;;;;;;;-2.60;100.00;97462.22;1223379;75;2920989;-69
2023/12/20 01:49:32;;;;;;;7.50;4.60;;;;;;;-2.73;100.00;97456.56;1219404;75;3078004;-69
2023/12/20 01:52:05;;;;;;;5.90;4.15;;;;;;;-2.66;100.00;97448.50;1222954;75;2923509;-68
2023/12/20 01:54:39;;;;;;;6.10;3.95;;;;;;;-2.59;100.00;97445.00;1223557;75;2905898;-70
2023/12/20 01:57:13;;;;;;;5.25;3.90;;;;;;;-2.71;100.00;97442.78;1223004;75;2922282;-68
2023/12/20 01:59:49;;;;;;;6.30;4.15;;;;;;;-2.66;100.00;97431.66;1224565;75;2919337;-70
2023/12/20 02:02:22;;;;;;;5.90;3.80;;;;;;;-2.64;100.00;97426.69;1223288;75;2921696;-68
2023/12/20 02:04:55;;;;;;;5.35;3.70;;;;;;;-2.72;100.00;97414.47;1222961;75;2922606;-67
2023/12/20 02:07:27;;;;;;;5.00;3.20;;;;;;;-2.72;100.00;97415.22;1223346;75;2918754;-66
2023/12/20 02:10:00;;;;;;;4.30;3.35;;;;;;;-2.73;100.00;97408.34;1223209;75;2920208;-69
2023/12/20 02:12:33;;;;;;;8.55;4.15;;;;;;;-2.76;100.00;97401.09;1221742;67;2922643;-67
2023/12/20 02:15:11;;;;;;;5.65;3.60;;;;;;;-2.69;100.00;97397.63;1223513;75;2915042;-66
2023/12/20 02:17:44;;;;;;;5.60;3.60;;;;;;;-2.76;100.00;97390.41;1223710;75;2922328;-68
2023/12/20 02:20:17;;;;;;;5.30;3.50;;;;;;;-2.78;100.00;97395.38;1222880;75;2931645;-68
2023/12/20 02:22:53;;;;;;;4.60;3.45;;;;;;;-2.78;100.00;97403.41;1222830;75;2923991;-67
2023/12/20 02:25:25;;;;;;;6.50;4.25;;;;;;;-2.93;100.00;97397.38;1222404;75;2920370;-69
2023/12/20 02:27:58;;;;;;;7.15;4.90;;;;;;;-2.90;100.00;97391.25;1222906;75;2934344;-65
2023/12/20 02:30:31;;;;;;;9.35;5.15;;;;;;;-2.92;100.00;97380.16;1223779;75;2916206;-70
2023/12/20 02:33:04;;;;;;;8.55;6.20;;;;;;;-2.90;100.00;97374.41;1222778;75;2918471;-71
2023/12/20 02:35:37;;;;;;;8.45;5.65;;;;;;;-2.80;100.00;97368.97;1222983;75;2921569;-67
2023/12/20 02:38:12;;;;;;;6.35;4.40;;;;;;;-2.85;100.00;97364.03;1222683;75;2926908;-70
2023/12/20 02:40:45;;;;;;;7.65;5.10;;;;;;;-2.89;100.00;97367.88;1223033;75;2925848;-67
2023/12/20 02:43:18;;;;;;;5.70;4.50;;;;;;;-2.89;100.00;97351.81;1222150;75;2903743;-70
2023/12/20 02:45:51;;;;;;;5.60;4.20;;;;;;;-2.90;100.00;97355.66;1222252;75;2926898;-69
2023/12/20 02:48:24;;;;;;;5.20;3.80;;;;;;;-2.91;100.00;97349.56;1222798;75;2923143;-68
2023/12/20 02:50:57;;;;;;;6.90;3.70;;;;;;;-2.96;100.00;97357.22;1222210;75;2920726;-68
2023/12/20 02:53:33;;;;;;;6.30;3.70;;;;;;;-2.94;100.00;97338.84;1221940;75;2925219;-71
2023/12/20 02:56:07;;;;;;;4.75;3.35;;;;;;;-3.02;100.00;97333.53;1222907;75;2934241;-70
2023/12/20 02:58:40;;;;;;;6.75;4.60;;;;;;;-3.11;100.00;97332.47;1222494;75;2927068;-69
2023/12/20 03:01:13;;;;;;;6.25;4.20;;;;;;;-3.02;100.00;97322.06;1222491;75;2933184;-69
2023/12/20 03:03:45;;;;;;;8.20;4.80;;;;;;;-3.13;100.00;97322.13;1222890;75;2917653;-70
2023/12/20 03:06:22;;;;;;;6.65;4.20;;;;;;;-3.17;100.00;97318.72;1223951;75;2915328;-68
2023/12/20 03:08:57;;;;;;;6.35;4.45;;;;;;;-3.07;100.00;97317.91;1222690;75;2924919;-69
2023/12/20 03:11:31;;;;;;;6.65;4.50;;;;;;;-3.14;100.00;97317.94;1222555;75;2921865;-69
2023/12/20 03:14:04;;;;;;;6.65;4.40;;;;;;;-3.18;100.00;97305.72;1221955;75;2928240;-71
2023/12/20 03:16:37;;;;;;;7.75;4.55;;;;;;;-3.13;100.00;97302.63;1222917;75;2922580;-66
2023/12/20 03:19:10;;;;;;;6.70;4.25;;;;;;;-3.10;100.00;97307.97;1221266;75;2917669;-71
2023/12/20 03:21:43;;;;;;;8.70;3.35;;;;;;;-3.12;100.00;97298.81;1222920;75;2920954;-67
2023/12/20 03:24:18;;;;;;;4.70;3.30;;;;;;;-3.09;100.00;97296.09;1219581;75;3101535;-69
2023/12/20 03:26:51;;;;;;;6.85;3.90;;;;;;;-3.15;100.00;97303.03;1220438;75;3053774;-69
2023/12/20 03:29:24;;;;;;;5.65;4.05;;;;;;;-3.15;100.00;97294.22;1223331;75;2932129;-68
2023/12/20 03:31:57;;;;;;;5.20;3.65;;;;;;;-3.08;100.00;97294.97;1222664;75;2922772;-71
2023/12/20 03:34:30;;;;;;;3.90;3.15;;;;;;;-3.03;100.00;97293.75;1223083;75;2921050;-69
2023/12/20 03:37:02;;;;;;;4.75;3.35;;;;;;;-3.05;100.00;97285.38;1222242;75;2925164;-69
2023/12/20 03:39:38;;;;;;;3.95;2.90;;;;;;;-3.12;100.00;97288.09;1223155;83;2930557;-69
2023/12/20 03:42:13;;;;;;;4.40;3.25;;;;;;;-3.18;100.00;97285.06;1222452;75;2923496;-68
2023/12/20 03:44:45;;;;;;;5.50;4.10;;;;;;;-3.17;100.00;97283.94;1222857;75;2919409;-71
2023/12/20 03:47:18;;;;;;;5.20;3.80;;;;;;;-3.09;100.00;97287.31;1222504;75;2928620;-70
2023/12/20 03:49:51;;;;;;;5.30;3.90;;;;;;;-3.05;100.00;97288.06;1222447;75;2928540;-70
2023/12/20 03:52:24;;;;;;;7.55;4.35;;;;;;;-3.06;100.00;97289.94;1221131;75;2925196;-69
2023/12/20 03:55:00;;;;;;;6.35;3.90;;;;;;;-3.01;100.00;97286.09;1222520;75;2919656;-69
2023/12/20 03:57:32;;;;;;;5.40;3.65;;;;;;;-3.09;100.00;97290.00;1222544;75;2929835;-70
2023/12/20 04:00:10;;;;;;;6.05;3.60;;;;;;;-3.05;100.00;97290.75;1222329;75;2926879;-69
2023/12/20 04:02:43;;;;;;;4.20;2.95;;;;;;;-3.04;100.00;97284.97;1221986;75;2921639;-69
2023/12/20 04:05:16;;;;;;;4.65;2.95;;;;;;;-3.06;100.00;97289.19;1222684;75;2919096;-70
2023/12/20 04:07:50;;;;;;;4.20;3.20;;;;;;;-3.07;100.00;97287.69;1222522;75;2928276;-70
2023/12/20 04:10:25;;;;;;;3.80;2.90;;;;;;;-3.09;100.00;97282.72;1221518;75;2929959;-66
2023/12/20 04:12:58;;;;;;;3.95;3.05;;;;;;;-3.07;100.00;97288.44;1222216;75;2918847;-71
2023/12/20 04:15:31;;;;;;;3.80;3.15;;;;;;;-3.08;100.00;97291.50;1221879;75;2924985;-65
2023/12/20 04:18:04;;;;;;;4.15;2.95;;;;;;;-3.16;100.00;97287.38;1222335;75;2925774;-68
2023/12/20 04:20:37;;;;;;;4.10;3.05;;;;;;;-3.05;100.00;97285.38;1221674;75;2922261;-69
2023/12/20 04:23:09;;;;;;;5.65;3.05;;;;;;;-3.08;100.00;97286.94;1222067;75;2928465;-70
2023/12/20 04:25:45;;;;;;;5.10;3.10;;;;;;;-3.22;100.00;97276.31;1223098;75;2930476;-67
2023/12/20 04:28:18;;;;;;;4.65;3.05;;;;;;;-3.15;100.00;97276.28;1222735;75;2919752;-68
2023/12/20 04:30:51;;;;;;;4.70;3.45;;;;;;;-3.27;100.00;97284.75;1223355;75;2929555;-69
2023/12/20 04:33:24;;;;;;;4.95;3.25;;;;;;;-3.14;100.00;97288.50;1222047;75;2933106;-71
2023/12/20 04:35:57;;;;;;;5.10;3.40;;;;;;;-3.27;100.00;97285.53;1222102;75;2941274;-69
2023/12/20 04:38:30;;;;;;;6.65;4.05;;;;;;;-3.36;100.00;97284.44;1222715;75;2935320;-67
2023/12/20 04:41:05;;;;;;;5.35;4.00;;;;;;;-3.23;100.00;97277.47;1221498;75;2935677;-69
2023/12/20 04:43:38;;;;;;;5.35;3.25;;;;;;;-3.24;100.00;97278.63;1221331;75;2929448;-66
2023/12/20 04:46:11;;;;;;;4.65;3.45;;;;;;;-3.33;100.00;97283.66;1222037;75;2923683;-71
2023/12/20 04:48:44;;;;;;;4.55;3.05;;;;;;;-3.29;100.00;97276.38;1222260;75;2923069;-68
2023/12/20 04:51:17;;;;;;;4.90;3.35;;;;;;;-3.28;100.00;97272.53;1221804;75;2925240;-69
2023/12/20 04:53:49;;;;;;;4.90;3.30;;;;;;;-3.33;100.00;97268.34;1221472;75;2924570;-68
2023/12/20 04:56:25;;;;;;;4.60;3.10;;;;;;;-3.37;100.00;97262.25;1221885;75;2925404;-67
2023/12/20 04:58:58;;;;;;;4.45;3.25;;;;;;;-3.45;100.00;97272.25;1222085;75;2927740;-67
2023/12/20 05:01:31;;;;;;;6.55;4.45;;;;;;;-3.47;100.00;97266.50;1221242;75;2927799;-69
2023/12/20 05:04:04;;;;;;;7.45;4.70;;;;;;;-3.51;100.00;97275.72;1221403;75;2923881;-69
2023/12/20 05:06:37;;;;;;;7.10;4.45;;;;;;;-3.44;100.00;97283.69;1222080;75;2922905;-66
2023/12/20 05:09:10;;;;;;;6.60;3.70;;;;;;;-3.49;100.00;97270.75;1220853;75;2935046;-70
2023/12/20 05:11:45;;;;;;;5.30;4.15;;;;;;;-3.55;100.00;97275.00;1220644;75;2928462;-68
2023/12/20 05:14:18;;;;;;;6.00;4.45;;;;;;;-3.48;100.00;97277.63;1221903;75;2930093;-69
2023/12/20 05:16:51;;;;;;;6.00;4.50;;;;;;;-3.45;100.00;97264.22;1221323;75;2922362;-69
2023/12/20 05:19:24;;;;;;;7.45;5.50;;;;;;;-3.40;100.00;97267.63;1219272;75;2925256;-68
2023/12/20 05:21:57;;;;;;;7.65;5.00;;;;;;;-3.37;100.00;97264.16;1220498;75;2942974;-69
2023/12/20 05:24:30;;;;;;;7.05;4.80;;;;;;;-3.33;100.00;97257.66;1221903;75;2923393;-72
2023/12/20 05:27:05;;;;;;;9.30;5.65;;;;;;;-3.26;100.00;97264.88;1221730;75;2932706;-67
2023/12/20 05:29:38;;;;;;;10.05;6.60;;;;;;;-3.24;100.00;97265.25;1221307;75;2923428;-69
2023/12/20 05:32:11;;;;;;;10.65;6.95;;;;;;;-3.16;100.00;97258.66;1222358;75;2926149;-70
2023/12/20 05:34:44;;;;;;;12.05;7.90;;;;;;;-3.14;100.00;97263.63;1222380;75;2919998;-69
2023/12/20 05:37:16;;;;;;;12.75;7.95;;;;;;;-3.03;100.00;97262.41;1221181;75;2915760;-68
2023/12/20 05:39:49;;;;;;;13.40;8.90;;;;;;;-3.07;100.00;97263.59;1220721;75;2936916;-69
2023/12/20 05:42:25;;;;;;;12.75;7.45;;;;;;;-3.09;100.00;97252.50;1219323;75;2926395;-66
2023/12/20 05:44:57;;;;;;;11.65;8.10;;;;;;;-3.17;100.00;97257.16;1222091;75;2920606;-66
2023/12/20 05:47:30;;;;;;;15.30;9.60;;;;;;;-3.17;100.00;97251.81;1222092;75;2930729;-70
2023/12/20 05:50:03;;;;;;;13.70;8.20;;;;;;;-3.15;100.00;97238.78;1221256;75;2930257;-68
2023/12/20 05:52:36;;;;;;;10.55;7.15;;;;;;;-3.20;100.00;97231.16;1221616;75;2922984;-68
2023/12/20 05:55:10;;;;;;;11.25;6.50;;;;;;;-3.17;100.00;97235.75;1221117;75;2933558;-70
2023/12/20 05:57:45;;;;;;;7.55;5.85;;;;;;;-3.08;100.00;97232.59;1221924;75;2925192;-69
2023/12/20 06:00:20;;;;;;;9.30;5.60;;;;;;;-2.96;100.00;97250.09;1221760;75;2923525;-69
2023/12/20 06:02:53;;;;;;;15.10;8.00;;;;;;;-2.77;100.00;97262.94;1221798;75;2925761;-67
2023/12/20 06:05:26;;;;;;;12.60;8.10;;;;;;;-2.68;100.00;97265.19;1221749;75;2956043;-70
2023/12/20 06:08:02;;;;;;;11.75;7.50;;;;;;;-2.58;100.00;97275.78;1221526;75;2936268;-71
2023/12/20 06:10:35;;;;;;;12.00;7.90;;;;;;;-2.54;100.00;97275.00;1222238;75;2927876;-72
2023/12/20 06:13:12;;;;;;;8.45;6.40;;;;;;;-2.39;100.00;97273.69;1221603;75;2924944;-69
2023/12/20 06:15:45;;;;;;;8.55;5.95;;;;;;;-2.45;100.00;97261.91;1222134;75;2931478;-67
2023/12/20 06:18:18;;;;;;;7.85;5.45;;;;;;;-2.43;100.00;97256.88;1221181;75;2927656;-68
2023/12/20 06:20:51;;;;;;;8.40;5.40;;;;;;;-2.29;100.00;97253.31;1222123;75;2930441;-66
2023/12/20 06:23:24;;;;;;;13.90;9.00;;;;;;;-2.22;100.00;97270.06;1221873;75;2926908;-69
2023/12/20 06:25:59;;;;;;;10.45;6.75;;;;;;;-2.01;100.00;97261.03;1222615;75;2917508;-70
2023/12/20 06:28:35;;;;;;;8.85;6.10;;;;;;;-1.90;100.00;97262.81;1221849;75;2929979;-71
2023/12/20 06:31:08;;;;;;;9.20;6.15;;;;;;;-1.90;100.00;97268.97;1219664;75;2942147;-69
2023/12/20 06:33:42;;;;;;;15.80;11.15;;;;;;;-1.80;100.00;97270.75;1222117;75;2920427;-70
2023/12/20 06:36:16;;;;;;;14.70;9.65;;;;;;;-1.74;100.00;97263.75;1221052;75;2946309;-70
2023/12/20 06:38:50;;;;;;;20.15;13.25;;;;;;;-1.67;100.00;97264.84;1219694;75;2922995;-67
2023/12/20 06:41:24;;;;;;;17.25;10.40;;;;;;;-1.55;100.00;97264.28;1221135;75;2935479;-70
2023/12/20 06:43:59;;;;;;;11.95;7.75;;;;;;;-1.51;100.00;97265.00;1219777;75;2922808;-71
2023/12/20 06:46:32;;;;;;;10.10;6.95;;;;;;;-1.44;100.00;97275.66;1220625;67;2939564;-69
2023/12/20 06:49:05;;;;;;;8.80;6.25;;;;;;;-1.53;100.00;97281.50;1220153;75;2942024;-68
2023/12/20 06:51:38;;;;;;;8.50;5.50;;;;;;;-1.56;100.00;97276.19;1221968;75;2922846;-68
2023/12/20 06:54:10;;;;;;;7.60;5.50;;;;;;;-1.45;100.00;97286.78;1220346;75;2974357;-69
2023/12/20 06:56:44;;;;;;;7.65;4.95;;;;;;;-1.43;100.00;97279.84;1220901;75;2919751;-68
2023/12/20 06:59:19;;;;;;;6.25;4.50;;;;;;;-1.35;100.00;97288.56;1222482;75;2926596;-68
2023/12/20 07:01:53;;;;;;;7.45;5.25;;;;;;;-1.33;100.00;97292.34;1221152;75;2944259;-68
2023/12/20 07:04:25;;;;;;;7.75;5.30;;;;;;;-1.35;100.00;97300.06;1222707;75;2926150;-69
2023/12/20 07:07:00;;;;;;;10.25;6.80;;;;;;;-1.49;100.00;97300.25;1221977;75;2931369;-70
2023/12/20 07:09:32;;;;;;;10.75;7.60;;;;;;;-1.49;100.00;97302.94;1221808;75;2925466;-69
2023/12/20 07:12:06;;;;;;;8.85;6.65;;;;;;;-1.34;100.00;97308.88;1221483;75;2934444;-71
2023/12/20 07:14:42;;;;;;;10.60;7.80;;;;;;;-1.47;100.00;97315.94;1221859;75;2935512;-68
2023/12/20 07:17:15;;;;;;;11.80;8.10;;;;;;;-1.38;100.00;97319.66;1222525;75;2930131;-69
2023/12/20 07:19:48;;;;;;;11.30;7.35;;;;;;;-1.36;100.00;97336.13;1221656;75;2923461;-70
2023/12/20 07:22:20;;;;;;;9.90;6.85;;;;;;;-1.13;100.00;97335.44;1222520;75;2913192;-69
2023/12/20 07:24:54;;;;;;;11.80;8.25;;;;;;;-1.17;100.00;97333.97;1222337;75;2918575;-70
2023/12/20 07:27:27;;;;;;;14.95;9.85;;;;;;;-1.09;100.00;97333.44;1223060;75;2924420;-69
2023/12/20 07:30:02;;;;;;;12.45;8.50;;;;;;;-0.93;100.00;97335.53;1223095;83;2944599;-68
2023/12/20 07:32:35;;;;;;;11.80;7.90;;;;;;;-0.90;100.00;97336.66;1222505;75;2925534;-71
2023/12/20 07:35:09;;;;;;;11.25;8.05;;;;;;;-0.82;100.00;97351.50;1223172;83;2924548;-72
2023/12/20 07:37:42;;;;;;;9.65;7.40;;;;;;;-0.79;100.00;97353.38;1223346;75;2924146;-70
2023/12/20 07:40:16;;;;;;;9.90;7.05;;;;;;;-0.58;100.00;97344.22;1223785;75;2922177;-68
2023/12/20 07:42:49;;;;;;;8.45;6.60;;;;;;;-0.47;100.00;97355.56;1222618;75;2932704;-69
2023/12/20 07:45:25;;;;;;;8.70;6.30;;;;;;;-0.51;100.00;97356.78;1221126;75;2926804;-70
2023/12/20 07:47:59;;;;;;;7.40;5.65;;;;;;;-0.39;100.00;97355.44;1222909;75;2923086;-68
2023/12/20 07:50:32;;;;;;;9.75;5.65;;;;;;;-0.54;100.00;97361.03;1223610;75;2914156;-69
2023/12/20 07:53:05;;;;;;;13.00;8.60;;;;;;;-0.71;100.00;97362.84;1223062;75;2930064;-70
2023/12/20 07:55:38;;;;;;;9.60;6.65;;;;;;;-0.39;100.00;97369.63;1223957;75;2925379;-69
2023/12/20 07:58:12;;;;;;;11.80;8.10;;;;;;;-0.30;100.00;97367.19;1223369;75;2935477;-71
2023/12/20 08:00:48;;;;;;;10.60;7.20;;;;;;;-0.25;100.00;97364.03;1223351;75;2927342;-70
2023/12/20 08:03:21;;;;;;;13.65;9.70;;;;;;;-0.52;100.00;97371.41;1223333;75;2922634;-70
2023/12/20 08:05:54;;;;;;;11.70;7.55;;;;;;;-0.28;100.00;97378.31;1224146;75;2930252;-68
2023/12/20 08:08:26;;;;;;;9.15;7.05;;;;;;;-0.22;100.00;97386.66;1222986;83;2921746;-68
2023/12/20 08:11:00;;;;;;;8.70;6.45;;;;;;;-0.13;100.00;97391.50;1222693;75;2924043;-69
2023/12/20 08:13:33;;;;;;;8.70;6.30;;;;;;;-0.13;100.00;97397.66;1222967;75;2930223;-66
2023/12/20 08:16:09;;;;;;;7.60;5.85;;;;;;;-0.01;100.00;97404.38;1224218;75;2923785;-70
2023/12/20 08:18:42;;;;;;;6.80;4.90;;;;;;;-0.03;100.00;97396.69;1222906;75;2929862;-69
2023/12/20 08:21:15;;;;;;;8.45;6.40;;;;;;;-0.09;100.00;97387.59;1224035;75;2921714;-71
2023/12/20 08:23:48;;;;;;;11.75;7.55;;;;;;;-0.27;100.00;97387.88;1223248;75;2924266;-69
2023/12/20 08:26:24;;;;;;;11.00;8.80;;;;;;;-0.10;100.00;97391.44;1223494;75;2932532;-72
2023/12/20 08:28:57;;;;;;;10.65;7.60;;;;;;;0.05;100.00;97396.56;1224207;75;2922904;-70
2023/12/20 08:31:32;;;;;;;10.75;8.20;;;;;;;-0.04;100.00;97405.19;1223323;75;2943430;-71
2023/12/20 08:34:05;;;;;;;11.40;8.60;;;;;;;0.09;100.00;97405.34;1222921;75;2922578;-69
2023/12/20 08:36:38;;;;;;;12.10;8.55;;;;;;;0.02;100.00;97403.53;1223769;75;2927750;-69
2023/12/20 08:39:11;;;;;;;16.95;9.75;;;;;;;-0.10;100.00;97402.19;1223560;75;2943043;-66
2023/12/20 08:41:44;;;;;;;11.65;8.25;;;;;;;0.13;100.00;97400.69;1224119;75;2928016;-73
2023/12/20 08:44:16;;;;;;;12.15;8.35;;;;;;;0.37;100.00;97404.09;1224392;75;2921724;-69
2023/12/20 08:46:52;;;;;;;17.65;11.95;;;;;;;0.07;100.00;97400.38;1222606;75;2924356;-70
2023/12/20 08:49:25;;;;;;;19.85;14.70;;;;;;;0.15;100.00;97401.03;1224356;75;2922373;-70
2023/12/20 08:51:58;;;;;;;18.40;12.85;;;;;;;0.32;100.00;97407.25;1223101;75;2928137;-68
2023/12/20 08:54:32;;;;;;;18.20;12.85;;;;;;;0.51;100.00;97409.19;1223444;75;2958704;-71
2023/12/20 08:57:06;;;;;;;13.75;10.05;;;;;;;0.80;100.00;97411.34;1223982;75;2933516;-72
2023/12/20 08:59:39;;;;;;;12.60;9.10;;;;;;;0.80;100.00;97409.41;1224053;75;2930996;-70
2023/12/20 09:02:15;;;;;;;13.90;8.35;;;;;;;0.83;100.00;97411.25;1210400;75;3833325;-68
2023/12/20 09:04:48;;;;;;;11.20;7.65;;;;;;;1.07;100.00;97413.84;1223851;75;2921341;-70
2023/12/20 09:07:30;;;;;;;12.30;8.40;;;;;;;1.25;100.00;97418.84;1220676;75;2927436;-70
2023/12/20 09:10:03;;;;;;;9.90;7.20;;;;;;;1.38;100.00;97430.50;1223081;75;2933176;-72
2023/12/20 09:12:39;;;;;;;10.00;7.25;;;;;;;1.55;100.00;97428.59;1223104;75;2928119;-71
2023/12/20 09:15:12;;;;;;;15.50;9.95;;;;;;;1.36;100.00;97411.28;1222622;75;2929214;-70
2023/12/20 09:17:48;;;;;;;11.65;8.00;;;;;;;1.50;100.00;97410.22;1223800;75;2931820;-73
2023/12/20 09:20:21;;;;;;;13.15;9.15;;;;;;;1.29;100.00;97400.66;1222836;75;2925652;-70
2023/12/20 09:22:54;;;;;;;12.70;9.50;;;;;;;1.57;100.00;97395.81;1222413;75;2932488;-69
2023/12/20 09:25:26;;;;;;;12.45;8.80;;;;;;;1.53;100.00;97379.69;1223366;75;2922914;-70
2023/12/20 09:27:59;;;;;;;13.25;9.55;;;;;;;1.70;100.00;97370.41;1222696;75;2927065;-71
2023/12/20 09:30:32;;;;;;;10.90;7.50;;;;;;;1.99;100.00;97377.78;1222648;75;2926401;-70
2023/12/20 09:33:08;;;;;;;11.25;7.35;;;;;;;2.01;100.00;97388.91;1222969;75;2923529;-70
2023/12/20 09:35:41;;;;;;;9.15;6.35;;;;;;;2.13;100.00;97396.31;1221644;75;2927720;-68
2023/12/20 09:38:15;;;;;;;11.50;7.35;;;;;;;1.95;100.00;97393.34;1222950;83;2930988;-72
2023/12/20 09:40:48;;;;;;;11.90;8.60;;;;;;;1.82;100.00;97387.09;1222838;75;2917519;-68
2023/12/20 09:43:28;;;;;;;9.80;7.40;;;;;;;2.02;100.00;97401.25;1222216;75;2931016;-72
2023/12/20 09:46:08;;;;;;;14.55;9.70;;;;;;;1.84;100.00;97398.22;1222188;75;2936191;-71
2023/12/20 09:48:48;;;;;;;12.35;8.10;;;;;;;2.17;100.00;97396.25;1222816;75;2928901;-70
2023/12/20 09:51:21;;;;;;;12.00;8.85;;;;;;;2.04;100.00;97403.50;1223397;75;2936220;-69
2023/12/20 09:53:57;;;;;;;10.65;8.40;;;;;;;2.06;100.00;97403.84;1223355;75;2919768;-70
2023/12/20 09:56:30;;;;;;;10.90;8.20;;;;;;;2.33;100.00;97387.31;1222494;75;2922968;-70
2023/12/20 09:59:04;;;;;;;8.55;6.60;;;;;;;2.69;100.00;97367.44;1223478;75;2921744;-68
2023/12/20 10:01:39;;;;;;;10.65;6.60;;;;;;;2.59;100.00;97358.44;1222628;75;2921715;-71
2023/12/20 10:04:16;;;;;;;10.80;7.90;;;;;;;2.69;100.00;97348.50;1223320;75;2921770;-70
2023/12/20 10:06:49;;;;;;;12.50;8.20;;;;;;;2.76;100.00;97357.16;1223037;75;2922748;-69
2023/12/20 10:09:22;;;;;;;12.85;7.25;;;;;;;3.41;100.00;97356.00;1223226;75;2921148;-70
2023/12/20 10:11:59;;;;;;;9.65;7.20;;;;;;;3.97;100.00;97353.81;1223912;75;2923625;-68
2023/12/20 10:14:31;;;;;;;9.85;6.65;;;;;;;4.18;98.07;97357.75;1222481;75;2980409;-70
2023/12/20 10:17:07;;;;;;;8.20;5.90;;;;;;;4.44;95.74;97378.13;1223456;75;2894576;-69
2023/12/20 10:19:42;;;;;;;7.35;5.40;;;;;;;4.78;92.58;97368.41;1222903;75;2927775;-70
2023/12/20 10:22:15;;;;;;;15.05;9.50;;;;;;;4.36;94.78;97359.84;1222627;75;2935260;-71
2023/12/20 10:24:50;;;;;;;12.30;8.05;;;;;;;4.42;93.81;97368.94;1223356;75;2931355;-70
2023/12/20 10:27:23;;;;;;;11.25;8.20;;;;;;;4.76;88.23;97359.94;1223671;75;2923610;-67
2023/12/20 10:29:56;;;;;;;13.35;7.90;;;;;;;4.02;94.40;97361.41;1224954;75;2917499;-70
2023/12/20 10:32:30;;;;;;;14.00;8.15;;;;;;;4.04;99.07;97356.28;1222762;75;2922722;-69
2023/12/20 10:35:05;;;;;;;13.90;8.25;;;;;;;4.15;94.33;97350.50;1223972;75;2928716;-70
2023/12/20 10:37:40;;;;;;;11.30;7.05;;;;;;;4.52;91.86;97348.06;1224073;75;2931366;-70
2023/12/20 10:40:16;;;;;;;12.95;8.45;;;;;;;4.91;91.17;97339.25;1223857;75;2922198;-70
2023/12/20 10:42:50;;;;;;;10.35;6.80;;;;;;;5.88;86.73;97345.53;1222944;75;2922651;-70
2023/12/20 10:45:23;;;;;;;11.00;7.70;;;;;;;5.45;83.86;97350.75;1223297;75;2933027;-70
2023/12/20 10:47:56;;;;;;;11.55;7.30;;;;;;;5.06;84.77;97336.00;1224382;75;2962140;-70
2023/12/20 10:50:32;;;;;;;9.85;6.80;;;;;;;5.61;82.05;97333.44;1223688;67;2928414;-69
2023/12/20 10:53:05;;;;;;;10.40;7.25;;;;;;;4.95;87.00;97332.94;1223438;75;2923081;-69
2023/12/20 10:55:38;;;;;;;9.05;6.40;;;;;;;4.70;86.11;97340.03;1224155;75;2929759;-72
2023/12/20 10:58:14;;;;;;;10.40;5.95;;;;;;;4.62;86.24;97344.97;1224208;75;2917712;-67
2023/12/20 11:00:49;;;;;;;10.95;6.10;;;;;;;4.10;85.42;97335.56;1224499;75;2923437;-67
2023/12/20 11:03:24;;;;;;;6.30;4.85;;;;;;;4.70;84.70;97326.47;1223895;75;2922911;-70
2023/12/20 11:06:10;;;;;;;8.70;5.70;;;;;;;4.69;84.68;97324.97;1224015;75;2932289;-68
2023/12/20 11:08:51;;;;;;;8.60;5.40;;;;;;;4.24;85.55;97340.50;1223175;75;2939863;-70
2023/12/20 11:11:35;;;;;;;7.40;5.50;;;;;;;4.07;86.49;97331.06;1224492;75;2920835;-65
2023/12/20 11:14:11;;;;;;;8.15;5.45;;;;;;;3.77;90.08;97324.31;1223058;75;2928448;-71
2023/12/20 11:16:45;;;;;;;8.80;5.20;;;;;;;4.09;88.74;97320.53;1224756;75;2918949;-68
2023/12/20 11:19:20;;;;;;;6.45;4.40;;;;;;;4.52;87.13;97318.25;1224347;75;2924764;-70
2023/12/20 11:21:56;;;;;;;5.95;3.35;;;;;;;4.56;84.56;97319.63;1223549;75;2923671;-68
2023/12/20 11:24:30;;;;;;;4.05;3.10;;;;;;;4.82;85.22;97324.88;1223453;83;2925261;-72
2023/12/20 11:27:04;;;;;;;5.50;3.30;;;;;;;4.79;84.62;97325.78;1223387;83;2922466;-70
2023/12/20 11:29:39;;;;;;;7.75;4.40;;;;;;;4.48;84.25;97321.09;1223961;75;2921846;-68
2023/12/20 11:32:33;;;;;;;7.00;4.30;;;;;;;4.33;87.80;97330.91;1223245;75;2922723;-70
2023/12/20 11:35:23;;;;;;;8.45;5.10;;;;;;;4.15;87.53;97315.31;1223513;75;2929782;-72
2023/12/20 11:38:01;;;;;;;7.35;5.05;;;;;;;4.58;86.48;97314.53;1223688;75;2926989;-69
2023/12/20 11:40:38;;;;;;;5.95;3.95;;;;;;;4.93;85.92;97311.69;1224087;75;2918633;-68